Etusivu
METAR-TAF:

METAR-TAF

Lentoasemat :

Aurora, Illinois, Yhdysvallat

Leveyspiiri: 41-46-12N, Pituuspiiri: 088-28-53W, korkeus merenpinnasta: 215 m

Tämänhetkinen sää

Tämä raportti tehtiin 15 minuuttia sitten, kello 22.52 UTC
tyyntä
Lämpötila 1°C
Kosteus 64%
Ilmanpaine 1019 hPa
Näkyvyys: 14.5 km
selkeää

METAR: KARR 162252Z 00000KT 9SM CLR 01/M05 A3009 RMK AO2 SLP201 T00111050

Aika: 17:07 (23:07 UTC)


TAF: puuttuu

Säähavainnot ja -ennusteet yli 4000 lentoasemalta (METAR- ja TAF-raportit).

Käytössä olevat sääasemat on merkitty karttaan keltaisilla ja punaisilla pisteillä.

Aseta hiiri pisteen päälle nähdäksesi sääaseman nimen.

Klikkaa sitten nähdäksesi säähavainnot ja -ennusteet.

Kartan vaihtaminen: klikkaa mustalla rastilla varustettuja vihreitä pisteitä, niin voit zoomata sisään; viivalla varustettua vihreää pistettä, niin voit zoomata ulos tai vihreitä nuolia, niin pääset viereisille kartoille.


METAR-TAF: